Time;durP1;ratioP1;P1;durP2;ratioP2;P2;SDS_P1;SDS_P2;PMS_P1;PMS_P2;Temp;Humidity;BMP_temperature;BMP_pressure;BME280_temperature;BME280_humidity;BME280_pressure;Samples;Min_cycle;Max_cycle;Signal;HPM_P1;HPM_P2
2022/10/12 00:01:41;;;;;;;9.23;5.18;;;6.90;99.90;;;;;;5049368;28;20039;-86
2022/10/12 00:04:07;;;;;;;8.52;5.22;;;6.90;99.90;;;;;;5068795;28;20052;-86
2022/10/12 00:06:32;;;;;;;11.98;4.95;;;6.90;99.90;;;;;;5051753;28;20028;-84
2022/10/12 00:08:58;;;;;;;6.47;4.05;;;6.80;99.90;;;;;;5052349;28;20028;-84
2022/10/12 00:11:27;;;;;;;5.97;4.18;;;6.80;99.90;;;;;;5049760;28;20056;-84
2022/10/12 00:13:54;;;;;;;5.32;4.20;;;6.80;99.90;;;;;;5030078;28;20104;-83
2022/10/12 00:16:22;;;;;;;8.93;5.70;;;6.80;99.90;;;;;;5043592;28;20037;-83
2022/10/12 00:18:52;;;;;;;6.85;5.18;;;6.80;99.90;;;;;;5035436;28;20062;-84
2022/10/12 00:21:19;;;;;;;8.55;4.00;;;6.70;99.90;;;;;;5062464;28;20029;-84
2022/10/12 00:23:45;;;;;;;4.93;3.92;;;6.80;99.90;;;;;;5068387;28;20037;-84
2022/10/12 00:26:18;;;;;;;6.50;4.47;;;6.70;99.90;;;;;;5067751;28;20036;-83
2022/10/12 00:28:44;;;;;;;10.02;4.65;;;6.60;99.90;;;;;;5068794;28;20021;-84
2022/10/12 00:31:17;;;;;;;7.88;4.70;;;6.60;99.90;;;;;;5051696;28;20039;-84
2022/10/12 00:33:43;;;;;;;6.93;4.40;;;6.60;99.90;;;;;;5064958;28;20036;-84
2022/10/12 00:36:19;;;;;;;13.77;5.30;;;6.50;99.90;;;;;;5051112;28;20041;-84
2022/10/12 00:38:46;;;;;;;9.50;5.28;;;6.50;99.90;;;;;;5051459;28;20025;-83
2022/10/12 00:41:12;;;;;;;8.65;5.40;;;6.50;99.90;;;;;;5059097;28;20028;-83
2022/10/12 00:43:40;;;;;;;8.10;4.93;;;6.50;99.90;;;;;;5066980;28;20098;-84
2022/10/12 00:46:15;;;;;;;8.48;4.85;;;6.50;99.90;;;;;;5054743;28;20032;-84
2022/10/12 00:48:42;;;;;;;6.75;3.85;;;6.50;99.90;;;;;;5068212;28;20044;-84
2022/10/12 00:51:09;;;;;;;6.32;4.32;;;6.50;99.90;;;;;;5050680;28;20025;-85
2022/10/12 00:53:41;;;;;;;5.75;4.10;;;6.50;99.90;;;;;;5051463;28;20052;-83
2022/10/12 00:56:16;;;;;;;8.30;4.50;;;6.50;99.90;;;;;;5069849;28;20461;-84
2022/10/12 00:58:43;;;;;;;6.03;4.25;;;6.50;99.90;;;;;;5046979;28;20039;-86
2022/10/12 01:01:09;;;;;;;6.18;3.95;;;6.50;99.90;;;;;;5056917;28;20527;-85
2022/10/12 01:03:35;;;;;;;8.35;4.45;;;6.50;99.90;;;;;;5036391;28;20043;-84
2022/10/12 01:06:02;;;;;;;4.85;3.92;;;6.40;99.90;;;;;;5053725;28;20021;-84
2022/10/12 01:08:28;;;;;;;7.82;4.40;;;6.40;99.90;;;;;;5049549;28;20032;-84
2022/10/12 01:10:54;;;;;;;6.32;4.32;;;6.30;99.90;;;;;;5048683;28;20047;-84
2022/10/12 01:13:20;;;;;;;7.20;3.97;;;6.30;99.90;;;;;;5032549;28;20037;-83
2022/10/12 01:16:04;;;;;;;6.35;3.72;;;6.30;99.90;;;;;;5034239;28;20043;-84
2022/10/12 01:18:39;;;;;;;9.40;4.63;;;6.30;99.90;;;;;;5067934;28;20047;-83
2022/10/12 01:21:09;;;;;;;9.60;4.57;;;6.30;99.90;;;;;;5065876;28;20043;-84
2022/10/12 01:23:41;;;;;;;7.05;4.13;;;6.20;99.90;;;;;;5067303;28;20109;-84
2022/10/12 01:26:34;;;;;;;6.00;3.90;;;6.20;99.90;;;;;;5067197;28;20056;-84
2022/10/12 01:29:38;;;;;;;4.07;3.67;;;6.20;99.90;;;;;;5067683;28;20707;-84
2022/10/12 01:32:27;;;;;;;8.10;4.10;;;6.10;99.90;;;;;;5067459;28;20025;-85
2022/10/12 01:35:03;;;;;;;3.78;3.47;;;6.10;99.90;;;;;;5064192;28;20744;-83
2022/10/12 01:37:51;;;;;;;7.03;3.97;;;6.10;99.90;;;;;;5067252;28;20090;-83
2022/10/12 01:40:26;;;;;;;9.88;4.45;;;6.10;99.90;;;;;;5060032;28;20039;-84
2022/10/12 01:42:54;;;;;;;8.00;4.55;;;6.00;99.90;;;;;;5067692;28;20524;-84
2022/10/12 01:45:20;;;;;;;7.45;4.50;;;6.00;99.90;;;;;;5052242;28;20028;-83
2022/10/12 01:47:51;;;;;;;6.00;4.78;;;6.00;99.90;;;;;;5050528;28;20071;-84
2022/10/12 01:50:20;;;;;;;6.75;5.13;;;6.10;99.90;;;;;;5048290;28;20029;-84
2022/10/12 01:53:17;;;;;;;8.50;4.78;;;6.00;99.90;;;;;;5050478;28;20025;-84
2022/10/12 01:55:42;;;;;;;7.63;4.78;;;6.00;99.90;;;;;;5063003;28;20035;-84
2022/10/12 01:58:21;;;;;;;8.52;5.13;;;6.00;99.90;;;;;;5070435;28;20025;-84
2022/10/12 02:00:58;;;;;;;4.97;3.97;;;6.00;99.90;;;;;;5060201;28;20127;-83
2022/10/12 02:03:58;;;;;;;9.05;3.75;;;6.00;99.90;;;;;;5059298;28;20032;-84
2022/10/12 02:06:31;;;;;;;6.10;4.00;;;6.00;99.90;;;;;;5063235;28;20036;-84
2022/10/12 02:09:18;;;;;;;5.57;3.90;;;6.00;99.90;;;;;;5056651;28;20162;-84
2022/10/12 02:11:45;;;;;;;6.65;3.55;;;6.00;99.90;;;;;;5071461;28;20431;-84
2022/10/12 02:14:22;;;;;;;5.82;3.97;;;5.90;99.90;;;;;;5051031;28;20100;-84
2022/10/12 02:17:10;;;;;;;10.95;4.88;;;5.90;99.90;;;;;;5064648;28;20032;-83
2022/10/12 02:19:42;;;;;;;7.95;4.22;;;5.90;99.90;;;;;;5054315;28;20029;-84
2022/10/12 02:22:09;;;;;;;8.48;4.25;;;5.90;99.90;;;;;;5067929;28;20039;-84
2022/10/12 02:24:38;;;;;;;6.43;4.38;;;5.80;99.90;;;;;;5051695;28;20040;-83
2022/10/12 02:27:07;;;;;;;5.38;4.47;;;5.80;99.90;;;;;;5059662;28;20064;-84
2022/10/12 02:29:38;;;;;;;6.20;4.72;;;5.80;99.90;;;;;;5051041;28;20033;-84
2022/10/12 02:32:18;;;;;;;8.40;4.78;;;5.80;99.90;;;;;;5065064;28;20127;-84
2022/10/12 02:34:56;;;;;;;9.10;4.45;;;5.80;99.90;;;;;;5065792;28;20063;-85
2022/10/12 02:37:47;;;;;;;7.93;4.50;;;5.80;99.90;;;;;;5053239;28;20047;-84
2022/10/12 02:40:22;;;;;;;11.52;4.70;;;5.70;99.90;;;;;;5047624;28;20554;-84
2022/10/12 02:43:00;;;;;;;13.68;6.13;;;5.70;99.90;;;;;;5070062;28;20028;-84
2022/10/12 02:45:26;;;;;;;11.23;4.90;;;5.70;99.90;;;;;;5052496;28;20037;-84
2022/10/12 02:47:54;;;;;;;6.28;4.53;;;5.70;99.90;;;;;;5053638;28;20073;-84
2022/10/12 02:50:22;;;;;;;13.63;5.60;;;5.70;99.90;;;;;;5053430;28;20029;-84
2022/10/12 02:52:48;;;;;;;8.57;4.65;;;5.70;99.90;;;;;;5053181;28;20043;-84
2022/10/12 02:55:15;;;;;;;9.23;4.93;;;5.60;99.90;;;;;;5050868;28;20477;-83
2022/10/12 02:57:41;;;;;;;9.70;5.20;;;5.70;99.90;;;;;;5037242;28;20091;-84
2022/10/12 03:00:08;;;;;;;6.93;5.68;;;5.70;99.90;;;;;;5052485;28;20330;-83
2022/10/12 03:02:33;;;;;;;10.73;5.72;;;5.70;99.90;;;;;;5053450;28;20123;-83
2022/10/12 03:04:59;;;;;;;9.80;5.10;;;5.60;99.90;;;;;;5069994;28;20532;-84
2022/10/12 03:07:25;;;;;;;7.70;4.65;;;5.60;99.90;;;;;;5052458;28;20500;-84
2022/10/12 03:09:51;;;;;;;7.68;4.82;;;5.60;99.90;;;;;;5016071;28;20033;-83
2022/10/12 03:12:18;;;;;;;9.20;5.60;;;5.60;99.90;;;;;;5050077;28;20035;-83
2022/10/12 03:14:43;;;;;;;9.73;5.10;;;5.60;99.90;;;;;;5049911;28;20029;-83
2022/10/12 03:17:09;;;;;;;12.50;5.97;;;5.50;99.90;;;;;;5049588;28;20522;-84
2022/10/12 03:19:37;;;;;;;5.97;4.72;;;5.50;99.90;;;;;;5052807;28;20395;-85
2022/10/12 03:22:04;;;;;;;10.00;4.45;;;5.50;99.90;;;;;;5050625;28;20139;-84
2022/10/12 03:24:30;;;;;;;7.45;4.43;;;5.50;99.90;;;;;;5052779;28;20485;-84
2022/10/12 03:26:55;;;;;;;10.38;4.63;;;5.40;99.90;;;;;;5035721;28;20090;-84
2022/10/12 03:29:21;;;;;;;11.23;4.55;;;5.40;99.90;;;;;;5053417;28;20108;-83
2022/10/12 03:31:47;;;;;;;10.25;4.78;;;5.40;99.90;;;;;;5052733;28;20611;-84
2022/10/12 03:34:13;;;;;;;9.45;5.22;;;5.40;99.90;;;;;;5019454;28;20060;-83
2022/10/12 03:36:38;;;;;;;7.60;4.65;;;5.40;99.90;;;;;;5035910;28;20037;-83
2022/10/12 03:39:04;;;;;;;10.20;4.78;;;5.40;99.90;;;;;;5047790;28;20044;-83
2022/10/12 03:41:33;;;;;;;8.10;5.07;;;5.40;99.90;;;;;;5046565;28;20161;-83
2022/10/12 03:44:00;;;;;;;8.25;5.28;;;5.30;99.90;;;;;;5046643;28;20595;-83
2022/10/12 03:46:26;;;;;;;7.38;4.93;;;5.30;99.90;;;;;;5068395;28;20032;-83
2022/10/12 03:48:51;;;;;;;7.40;5.72;;;5.30;99.90;;;;;;5036710;28;20068;-83
2022/10/12 03:51:17;;;;;;;9.07;5.43;;;5.30;99.90;;;;;;5052644;28;20112;-82
2022/10/12 03:53:43;;;;;;;9.10;4.97;;;5.30;99.90;;;;;;5036814;28;20561;-83
2022/10/12 03:56:08;;;;;;;7.22;4.90;;;5.20;99.90;;;;;;5024693;28;20489;-83
2022/10/12 03:58:36;;;;;;;6.85;5.03;;;5.20;99.90;;;;;;5052756;28;20041;-84
2022/10/12 04:01:02;;;;;;;9.98;5.97;;;5.20;99.90;;;;;;5041587;28;20039;-84
2022/10/12 04:03:27;;;;;;;9.93;4.85;;;5.20;99.90;;;;;;5035824;28;20370;-84
2022/10/12 04:05:57;;;;;;;7.43;4.82;;;5.20;99.90;;;;;;5051694;28;20036;-84
2022/10/12 04:08:25;;;;;;;7.55;5.15;;;5.10;99.90;;;;;;5052976;28;20042;-84
2022/10/12 04:10:51;;;;;;;5.75;5.00;;;5.10;99.90;;;;;;5035506;28;20028;-83
2022/10/12 04:13:18;;;;;;;9.48;5.90;;;5.10;99.90;;;;;;5036213;28;20501;-83
2022/10/12 04:15:44;;;;;;;6.05;5.32;;;5.10;99.90;;;;;;5068476;28;20035;-83
2022/10/12 04:18:10;;;;;;;9.65;5.63;;;5.10;99.90;;;;;;5049458;28;20064;-83
2022/10/12 04:20:35;;;;;;;10.93;5.30;;;5.10;99.90;;;;;;5051672;28;20127;-84
2022/10/12 04:23:01;;;;;;;8.05;5.50;;;5.00;99.90;;;;;;5019205;28;20123;-84
2022/10/12 04:25:27;;;;;;;9.65;5.90;;;5.00;99.90;;;;;;5068350;28;20041;-84
2022/10/12 04:27:53;;;;;;;7.05;6.00;;;5.00;99.90;;;;;;5052540;28;20094;-84
2022/10/12 04:30:18;;;;;;;9.75;5.82;;;4.90;99.90;;;;;;5052098;28;20059;-83
2022/10/12 04:32:44;;;;;;;10.02;6.88;;;4.90;99.90;;;;;;5052150;28;20378;-83
2022/10/12 04:35:10;;;;;;;11.65;6.30;;;4.90;99.90;;;;;;5041570;28;20443;-83
2022/10/12 04:37:36;;;;;;;15.15;6.88;;;4.90;99.90;;;;;;5035877;28;20067;-83
2022/10/12 04:40:02;;;;;;;11.05;7.10;;;4.90;99.90;;;;;;5038404;28;20033;-83
2022/10/12 04:42:28;;;;;;;10.40;6.68;;;4.90;99.90;;;;;;5050748;28;20085;-83
2022/10/12 04:44:54;;;;;;;13.10;7.90;;;4.90;99.90;;;;;;5051327;28;20493;-84
2022/10/12 04:47:20;;;;;;;13.38;7.13;;;5.00;99.90;;;;;;5051023;28;20028;-84
2022/10/12 04:49:46;;;;;;;11.30;7.35;;;5.00;99.90;;;;;;5018682;28;20513;-83
2022/10/12 04:52:11;;;;;;;13.00;7.50;;;5.00;99.90;;;;;;5035720;28;20029;-83
2022/10/12 04:54:37;;;;;;;11.65;7.55;;;5.00;99.90;;;;;;5019455;28;20036;-83
2022/10/12 04:57:03;;;;;;;12.50;7.00;;;5.00;99.90;;;;;;5052393;28;20464;-83
2022/10/12 04:59:29;;;;;;;12.35;7.22;;;5.00;99.90;;;;;;5019400;28;20040;-83
2022/10/12 05:01:54;;;;;;;11.00;7.80;;;5.00;99.90;;;;;;5051545;28;20037;-83
2022/10/12 05:04:20;;;;;;;9.10;6.78;;;4.90;99.90;;;;;;5050973;28;20442;-83
2022/10/12 05:06:46;;;;;;;12.05;7.25;;;4.90;99.90;;;;;;5016456;28;20050;-84
2022/10/12 05:09:12;;;;;;;13.57;7.88;;;4.90;99.90;;;;;;5028788;28;20025;-84
2022/10/12 05:11:37;;;;;;;11.20;6.47;;;4.90;99.90;;;;;;5049250;28;20048;-84
2022/10/12 05:14:03;;;;;;;10.60;6.82;;;4.90;99.90;;;;;;5015517;28;20033;-83
2022/10/12 05:16:29;;;;;;;8.68;6.60;;;4.90;99.90;;;;;;5043964;28;20040;-83
2022/10/12 05:18:55;;;;;;;9.77;6.93;;;4.80;99.90;;;;;;5051565;28;20048;-83
2022/10/12 05:21:20;;;;;;;11.13;6.53;;;4.80;99.90;;;;;;5031818;28;20041;-84
2022/10/12 05:23:50;;;;;;;11.43;5.90;;;4.80;99.90;;;;;;5043751;28;20086;-84
2022/10/12 05:26:17;;;;;;;8.40;5.60;;;4.80;99.90;;;;;;5051117;28;20032;-83
2022/10/12 05:28:43;;;;;;;9.15;6.18;;;4.80;99.90;;;;;;5068529;28;20037;-83
2022/10/12 05:31:09;;;;;;;8.75;5.75;;;4.80;99.90;;;;;;5048622;28;20094;-84
2022/10/12 05:33:34;;;;;;;9.43;5.30;;;4.70;99.90;;;;;;5035084;28;20163;-83
2022/10/12 05:36:00;;;;;;;9.25;5.75;;;4.80;99.90;;;;;;5032324;28;20032;-83
2022/10/12 05:38:26;;;;;;;9.55;6.20;;;4.70;99.90;;;;;;5055145;28;20484;-83
2022/10/12 05:40:52;;;;;;;11.32;6.13;;;4.70;99.90;;;;;;5037922;28;20029;-83
2022/10/12 05:43:17;;;;;;;10.82;5.68;;;4.70;99.90;;;;;;5032607;28;20036;-84
2022/10/12 05:45:43;;;;;;;8.35;6.50;;;4.70;99.90;;;;;;5050319;28;20032;-84
2022/10/12 05:48:09;;;;;;;10.75;6.85;;;4.70;99.90;;;;;;5038771;28;20033;-83
2022/10/12 05:50:35;;;;;;;13.20;6.72;;;4.70;99.90;;;;;;5055033;28;20052;-84
2022/10/12 05:53:01;;;;;;;15.27;8.18;;;4.70;99.90;;;;;;5038203;28;20036;-83
2022/10/12 05:55:27;;;;;;;11.10;6.50;;;4.70;99.90;;;;;;5037856;28;20040;-83
2022/10/12 05:57:53;;;;;;;11.20;5.95;;;4.70;99.90;;;;;;5055255;28;20040;-83
2022/10/12 06:00:18;;;;;;;8.55;6.50;;;4.70;99.90;;;;;;5021571;28;20112;-83
2022/10/12 06:02:44;;;;;;;10.52;6.75;;;4.70;99.90;;;;;;5038074;28;20512;-84
2022/10/12 06:05:10;;;;;;;9.45;6.32;;;4.70;99.90;;;;;;5044283;28;20052;-83
2022/10/12 06:07:36;;;;;;;10.25;7.22;;;4.70;99.90;;;;;;5002508;28;20726;-84
2022/10/12 06:10:02;;;;;;;10.93;7.40;;;4.70;99.90;;;;;;5047907;28;20062;-83
2022/10/12 06:12:28;;;;;;;13.30;7.80;;;4.80;99.90;;;;;;5048708;28;20090;-84
2022/10/12 06:14:54;;;;;;;11.55;7.63;;;4.80;99.90;;;;;;5033374;28;20032;-84
2022/10/12 06:17:20;;;;;;;11.15;6.85;;;4.70;99.90;;;;;;5054111;28;20028;-83
2022/10/12 06:19:45;;;;;;;11.45;6.93;;;4.80;99.90;;;;;;5050746;28;20562;-83
2022/10/12 06:22:11;;;;;;;9.63;7.40;;;4.90;99.90;;;;;;5050610;28;20051;-83
2022/10/12 06:24:37;;;;;;;11.25;7.05;;;4.90;99.90;;;;;;5050207;28;20043;-83
2022/10/12 06:27:03;;;;;;;11.95;7.55;;;4.90;99.90;;;;;;5044845;28;20028;-83
2022/10/12 06:29:29;;;;;;;10.52;7.38;;;5.00;99.90;;;;;;5052868;28;20518;-84
2022/10/12 06:31:55;;;;;;;11.57;7.93;;;5.10;99.90;;;;;;5031412;28;20056;-84
2022/10/12 06:34:21;;;;;;;6.78;5.25;;;5.20;99.90;;;;;;5025822;28;20108;-84
2022/10/12 06:36:47;;;;;;;6.47;4.75;;;5.30;99.90;;;;;;5025790;28;20120;-83
2022/10/12 06:39:13;;;;;;;9.30;4.20;;;5.40;99.90;;;;;;5053704;28;20040;-83
2022/10/12 06:41:39;;;;;;;6.97;5.00;;;5.50;99.90;;;;;;5053277;28;20036;-83
2022/10/12 06:44:08;;;;;;;6.78;5.18;;;5.60;99.90;;;;;;5018045;28;20035;-83
2022/10/12 06:46:33;;;;;;;7.72;6.05;;;5.70;99.90;;;;;;5036631;28;20021;-84
2022/10/12 06:48:59;;;;;;;10.38;6.10;;;5.80;99.90;;;;;;5048047;28;20573;-84
2022/10/12 06:51:25;;;;;;;8.27;5.72;;;6.10;99.90;;;;;;5046560;28;20493;-84
2022/10/12 06:53:54;;;;;;;7.72;5.97;;;6.40;99.90;;;;;;5050193;28;20108;-84
2022/10/12 06:56:20;;;;;;;8.90;6.03;;;6.70;99.90;;;;;;5066528;28;20044;-84
2022/10/12 06:58:46;;;;;;;8.93;5.70;;;6.90;99.90;;;;;;5061904;28;20075;-83
2022/10/12 07:01:11;;;;;;;7.40;6.00;;;7.20;99.90;;;;;;5030368;28;20069;-84
2022/10/12 07:03:37;;;;;;;9.38;6.50;;;7.50;99.90;;;;;;5033151;28;20040;-83
2022/10/12 07:06:07;;;;;;;9.60;6.00;;;7.70;99.90;;;;;;5043832;28;20029;-84
2022/10/12 07:08:33;;;;;;;6.60;5.15;;;8.00;99.90;;;;;;5052368;28;20029;-84
2022/10/12 07:11:01;;;;;;;7.28;4.40;;;8.40;99.90;;;;;;5049788;28;20481;-84
2022/10/12 07:13:27;;;;;;;4.97;4.13;;;8.70;99.90;;;;;;5053572;28;20032;-84
2022/10/12 07:15:53;;;;;;;7.38;4.47;;;9.10;99.90;;;;;;5061106;28;20024;-84
2022/10/12 07:18:19;;;;;;;9.85;5.50;;;9.40;99.90;;;;;;5043117;28;20513;-84
2022/10/12 07:20:44;;;;;;;7.88;5.30;;;9.70;99.90;;;;;;5026109;28;20055;-83
2022/10/12 07:23:10;;;;;;;6.15;4.65;;;9.90;99.90;;;;;;5018904;28;20471;-83
2022/10/12 07:25:36;;;;;;;9.73;5.45;;;10.10;99.90;;;;;;5052338;28;20384;-84
2022/10/12 07:28:04;;;;;;;12.27;6.60;;;10.30;99.90;;;;;;5035882;28;20017;-84
2022/10/12 07:30:30;;;;;;;9.25;5.90;;;10.40;99.90;;;;;;5038870;28;20635;-83
2022/10/12 07:32:55;;;;;;;9.85;6.60;;;10.50;99.90;;;;;;5051902;28;20021;-83
2022/10/12 07:35:21;;;;;;;11.55;5.75;;;10.60;99.90;;;;;;5043195;28;20521;-84
2022/10/12 07:37:48;;;;;;;7.28;5.82;;;10.80;99.90;;;;;;5068956;28;20028;-83
2022/10/12 07:40:14;;;;;;;12.38;6.28;;;10.90;99.90;;;;;;5049760;28;20043;-83
2022/10/12 07:42:40;;;;;;;9.10;6.05;;;10.90;99.90;;;;;;5052871;28;20412;-84
2022/10/12 07:45:06;;;;;;;11.32;6.45;;;11.00;99.90;;;;;;5019944;28;20653;-84
2022/10/12 07:47:32;;;;;;;12.95;7.05;;;11.00;99.90;;;;;;5034356;28;20036;-83
2022/10/12 07:49:58;;;;;;;13.57;7.65;;;11.10;99.90;;;;;;5019540;28;20033;-84
2022/10/12 07:52:26;;;;;;;11.75;6.25;;;11.10;99.90;;;;;;5066054;28;20020;-84
2022/10/12 07:54:52;;;;;;;11.15;6.10;;;11.20;99.90;;;;;;5045965;28;20436;-84
2022/10/12 07:57:18;;;;;;;12.15;5.70;;;11.20;99.90;;;;;;5030772;28;20040;-84
2022/10/12 07:59:44;;;;;;;10.18;6.13;;;11.20;99.90;;;;;;5043941;28;20041;-84
2022/10/12 08:02:12;;;;;;;12.48;6.28;;;11.20;99.90;;;;;;5061395;28;20025;-84
2022/10/12 08:04:38;;;;;;;12.38;6.13;;;11.30;99.90;;;;;;5043949;28;20033;-85
2022/10/12 08:07:04;;;;;;;11.27;6.50;;;11.30;99.90;;;;;;5016404;28;20127;-84
2022/10/12 08:09:30;;;;;;;8.75;6.28;;;11.30;99.90;;;;;;5050842;28;20024;-84
2022/10/12 08:11:56;;;;;;;12.20;6.93;;;11.30;99.90;;;;;;5051424;28;20874;-84
2022/10/12 08:14:21;;;;;;;9.60;6.10;;;11.30;99.90;;;;;;5048183;28;20225;-84
2022/10/12 08:16:47;;;;;;;7.78;5.32;;;11.30;99.90;;;;;;5032868;28;20676;-84
2022/10/12 08:19:13;;;;;;;10.40;6.47;;;11.30;99.90;;;;;;5039798;28;20032;-85
2022/10/12 08:21:41;;;;;;;11.10;6.50;;;11.30;99.90;;;;;;5047627;28;20036;-84
2022/10/12 08:24:08;;;;;;;9.13;5.68;;;11.40;99.90;;;;;;5060147;28;20075;-85
2022/10/12 08:26:34;;;;;;;13.52;6.22;;;11.40;99.90;;;;;;5041569;28;20036;-85
2022/10/12 08:29:04;;;;;;;9.25;5.82;;;11.30;99.90;;;;;;5015458;28;20036;-85
2022/10/12 08:31:30;;;;;;;9.65;5.50;;;11.30;99.90;;;;;;5063341;28;20020;-85
2022/10/12 08:33:57;;;;;;;7.93;5.78;;;11.20;99.90;;;;;;5047209;28;20074;-85
2022/10/12 08:36:22;;;;;;;11.77;5.20;;;11.20;99.90;;;;;;5047964;28;20089;-84
2022/10/12 08:38:53;;;;;;;10.00;5.82;;;11.10;99.90;;;;;;5046595;28;20040;-85
2022/10/12 08:41:59;;;;;;;13.23;6.00;;;11.00;99.90;;;;;;5047982;28;20037;-85
2022/10/12 08:44:43;;;;;;;11.82;5.97;;;11.10;99.90;;;;;;5044565;28;20055;-84
2022/10/12 08:47:34;;;;;;;13.80;6.10;;;11.10;99.90;;;;;;5053475;28;20021;-85
2022/10/12 08:50:03;;;;;;;7.55;5.70;;;11.00;99.90;;;;;;5032794;28;20051;-84
2022/10/12 08:52:45;;;;;;;11.60;6.45;;;11.00;99.90;;;;;;5058759;28;20435;-84
2022/10/12 08:55:34;;;;;;;11.38;6.97;;;10.90;99.90;;;;;;5049251;28;20044;-84
2022/10/12 08:58:00;;;;;;;10.10;6.43;;;10.80;99.90;;;;;;5044979;28;20037;-85
2022/10/12 09:00:28;;;;;;;13.10;6.78;;;10.70;99.90;;;;;;5047275;28;20020;-85
2022/10/12 09:03:11;;;;;;;9.65;6.43;;;10.60;99.90;;;;;;5014697;28;20028;-84
2022/10/12 09:06:11;;;;;;;9.73;6.93;;;10.60;99.90;;;;;;5043028;28;20446;-83
2022/10/12 09:08:43;;;;;;;8.88;6.38;;;10.70;99.90;;;;;;5057723;28;20061;-85
2022/10/12 09:11:17;;;;;;;11.55;6.53;;;10.80;99.90;;;;;;5042022;28;20103;-86
2022/10/12 09:13:49;;;;;;;15.25;7.85;;;10.80;99.90;;;;;;5054034;28;20021;-85
2022/10/12 09:16:21;;;;;;;11.38;6.35;;;11.00;99.90;;;;;;5055640;28;20122;-85
2022/10/12 09:18:56;;;;;;;10.48;6.88;;;11.00;99.90;;;;;;5061470;28;20039;-85
2022/10/12 09:21:26;;;;;;;12.20;6.40;;;11.10;99.90;;;;;;5063382;28;20037;-86
2022/10/12 09:23:55;;;;;;;8.60;5.85;;;11.20;99.90;;;;;;5048398;28;20040;-85
2022/10/12 09:26:34;;;;;;;12.35;7.30;;;11.30;99.90;;;;;;5050405;28;20031;-85
2022/10/12 09:29:01;;;;;;;15.60;7.47;;;11.40;99.90;;;;;;5050680;28;20552;-84
2022/10/12 09:32:01;;;;;;;13.48;6.30;;;11.50;99.90;;;;;;5040781;28;20074;-84
2022/10/12 09:34:27;;;;;;;12.10;6.50;;;11.70;99.90;;;;;;5052195;28;20024;-85
2022/10/12 09:36:54;;;;;;;11.52;5.15;;;11.80;99.90;;;;;;5047028;28;20511;-85
2022/10/12 09:39:23;;;;;;;16.73;7.07;;;12.00;99.90;;;;;;5043103;28;20521;-85
2022/10/12 09:41:48;;;;;;;13.15;7.05;;;12.10;99.90;;;;;;5063181;28;20139;-84
2022/10/12 09:44:28;;;;;;;10.27;6.10;;;12.20;99.90;;;;;;5037596;28;20830;-85
2022/10/12 09:47:27;;;;;;;10.30;6.20;;;12.40;99.90;;;;;;5054410;28;20033;-85
2022/10/12 09:49:59;;;;;;;11.25;6.22;;;12.50;99.90;;;;;;5042418;28;20043;-85
2022/10/12 09:52:34;;;;;;;13.20;7.20;;;12.60;99.90;;;;;;5044318;28;20048;-85
2022/10/12 09:55:04;;;;;;;12.48;6.85;;;12.60;99.90;;;;;;5041828;28;20020;-85
2022/10/12 09:57:33;;;;;;;11.93;5.97;;;12.70;99.90;;;;;;5046259;28;20041;-85
2022/10/12 10:00:05;;;;;;;13.30;6.28;;;12.80;99.90;;;;;;5047774;28;20428;-85
2022/10/12 10:02:48;;;;;;;12.32;6.18;;;13.00;99.90;;;;;;5048721;28;20416;-85
2022/10/12 10:05:26;;;;;;;14.15;6.75;;;13.10;99.90;;;;;;5036248;28;20043;-85
2022/10/12 10:08:11;;;;;;;11.35;6.32;;;13.20;99.90;;;;;;5052495;28;20673;-85
2022/10/12 10:10:46;;;;;;;16.17;6.40;;;13.20;99.90;;;;;;5041137;28;20029;-84
2022/10/12 10:13:14;;;;;;;10.35;6.45;;;13.30;99.90;;;;;;5034151;28;20127;-85
2022/10/12 10:15:44;;;;;;;15.98;6.35;;;13.40;99.90;;;;;;5056389;28;20025;-86
2022/10/12 10:18:35;;;;;;;10.63;6.15;;;13.50;99.90;;;;;;5035696;28;20021;-85
2022/10/12 10:21:05;;;;;;;11.85;6.38;;;13.60;99.90;;;;;;5046740;28;20028;-86
2022/10/12 10:23:35;;;;;;;16.63;6.38;;;13.70;99.90;;;;;;5046448;28;20033;-85
2022/10/12 10:26:06;;;;;;;16.45;7.20;;;13.70;99.90;;;;;;5044522;28;20029;-85
2022/10/12 10:28:37;;;;;;;19.63;9.15;;;13.70;99.90;;;;;;5059122;28;20424;-86
2022/10/12 10:31:06;;;;;;;14.32;7.22;;;13.90;99.90;;;;;;5054230;28;20057;-85
2022/10/12 10:33:35;;;;;;;16.83;6.93;;;13.90;99.90;;;;;;5018086;28;20025;-85
2022/10/12 10:36:21;;;;;;;14.48;6.78;;;13.90;99.90;;;;;;5047968;28;20111;-86
2022/10/12 10:38:56;;;;;;;;;;;14.00;99.90;;;;;;5030710;28;20021;-85
2022/10/12 10:41:30;;;;;;;16.92;7.38;;;14.00;99.90;;;;;;5066734;28;19912;-86
2022/10/12 10:43:56;;;;;;;18.08;7.82;;;14.10;99.90;;;;;;5064383;28;20515;-86
2022/10/12 10:46:30;;;;;;;10.82;5.85;;;14.10;99.90;;;;;;5051570;28;20033;-86
2022/10/12 10:49:05;;;;;;;12.48;6.63;;;14.20;99.90;;;;;;5050717;28;20032;-86
2022/10/12 10:51:50;;;;;;;16.63;6.93;;;14.20;99.90;;;;;;5060746;28;20028;-85
2022/10/12 10:54:22;;;;;;;12.60;7.53;;;14.30;99.90;;;;;;5038006;28;20029;-85
2022/10/12 10:56:52;;;;;;;15.43;6.80;;;14.30;99.90;;;;;;5063814;28;20059;-85
2022/10/12 10:59:40;;;;;;;12.93;6.88;;;14.30;99.90;;;;;;5022620;28;20033;-87
2022/10/12 11:02:35;;;;;;;13.13;6.95;;;14.30;99.90;;;;;;5057426;28;20087;-84
2022/10/12 11:05:17;;;;;;;10.55;7.00;;;14.40;99.90;;;;;;5060250;28;20028;-86
2022/10/12 11:07:49;;;;;;;11.25;6.93;;;14.40;99.90;;;;;;5045236;28;20476;-86
2022/10/12 11:10:22;;;;;;;18.95;7.32;;;14.50;99.90;;;;;;5043028;28;20060;-87
2022/10/12 11:12:54;;;;;;;12.63;8.05;;;14.50;99.90;;;;;;5039308;28;20024;-86
2022/10/12 11:15:36;;;;;;;13.68;6.90;;;14.50;99.90;;;;;;5036674;28;20035;-86
2022/10/12 11:18:20;;;;;;;16.88;7.03;;;14.50;99.90;;;;;;5067302;28;20077;-85
2022/10/12 11:20:58;;;;;;;15.05;7.50;;;14.60;99.90;;;;;;5046746;28;20028;-84
2022/10/12 11:23:30;;;;;;;13.98;8.02;;;14.60;99.90;;;;;;5053054;28;20041;-86
2022/10/12 11:26:08;;;;;;;16.67;8.60;;;14.60;99.90;;;;;;5054578;28;20529;-87
2022/10/12 11:28:36;;;;;;;12.60;7.95;;;14.70;99.90;;;;;;5050947;28;20032;-85
2022/10/12 11:31:05;;;;;;;11.75;7.68;;;14.80;99.90;;;;;;5051623;28;20035;-85
2022/10/12 11:33:37;;;;;;;15.65;8.27;;;14.80;99.90;;;;;;5050892;28;20677;-86
2022/10/12 11:36:08;;;;;;;12.02;7.88;;;15.00;99.90;;;;;;5036929;28;20443;-87
2022/10/12 11:38:47;;;;;;;14.68;8.02;;;15.10;99.90;;;;;;5051127;28;20115;-85
2022/10/12 11:41:44;;;;;;;18.73;8.50;;;15.10;99.90;;;;;;5051846;28;20048;-85
2022/10/12 11:44:18;;;;;;;16.90;7.57;;;15.20;99.90;;;;;;5055651;28;20064;-86
2022/10/12 11:47:03;;;;;;;12.88;6.95;;;15.20;99.90;;;;;;5047803;28;20673;-85
2022/10/12 11:49:55;;;;;;;14.48;7.78;;;15.30;99.90;;;;;;5050322;28;20044;-85
2022/10/12 11:52:23;;;;;;;14.15;7.72;;;15.30;99.90;;;;;;5060565;28;20048;-86
2022/10/12 11:55:24;;;;;;;10.57;6.93;;;15.30;99.90;;;;;;5048694;28;20490;-85
2022/10/12 11:57:54;;;;;;;15.10;8.68;;;15.40;99.90;;;;;;5061733;28;20029;-85
2022/10/12 12:00:24;;;;;;;16.35;7.13;;;15.40;99.90;;;;;;5021760;28;20029;-86
2022/10/12 12:02:58;;;;;;;12.65;8.32;;;15.50;99.90;;;;;;5033779;28;20051;-86
2022/10/12 12:05:30;;;;;;;16.35;8.35;;;15.50;99.90;;;;;;5044893;28;20025;-86
2022/10/12 12:07:57;;;;;;;12.70;7.85;;;15.50;99.90;;;;;;5067359;28;20625;-86
2022/10/12 12:10:36;;;;;;;14.73;7.65;;;15.50;99.90;;;;;;5051093;28;20033;-88
2022/10/12 12:13:13;;;;;;;10.60;7.15;;;15.60;99.90;;;;;;5066080;28;20025;-86
2022/10/12 12:16:11;;;;;;;14.77;7.68;;;15.60;99.90;;;;;;5051903;28;20028;-88
2022/10/12 12:19:14;;;;;;;16.63;7.57;;;15.70;99.90;;;;;;5052016;28;20064;-86
2022/10/12 12:22:18;;;;;;;15.75;7.32;;;15.70;99.90;;;;;;5047411;28;20036;-85
2022/10/12 12:24:59;;;;;;;13.95;6.00;;;15.80;99.90;;;;;;5069058;28;20051;-85
2022/10/12 12:27:41;;;;;;;10.07;6.72;;;15.90;99.90;;;;;;5051633;28;20374;-85
2022/10/12 12:30:19;;;;;;;10.10;6.75;;;15.90;99.90;;;;;;5035879;28;20032;-85
2022/10/12 12:32:56;;;;;;;11.68;5.72;;;16.00;99.90;;;;;;5045961;28;20033;-85
2022/10/12 12:35:49;;;;;;;9.90;6.38;;;16.10;99.90;;;;;;5050355;28;20033;-85
2022/10/12 12:38:25;;;;;;;12.63;6.90;;;16.00;99.90;;;;;;5052698;28;20113;-86
2022/10/12 12:40:58;;;;;;;9.95;5.15;;;15.90;99.90;;;;;;5029569;28;20115;-88
2022/10/12 12:43:27;;;;;;;10.23;5.38;;;15.90;99.90;;;;;;5069596;28;20040;-86
2022/10/12 12:46:01;;;;;;;10.68;5.72;;;15.90;99.90;;;;;;5068064;28;20039;-85
2022/10/12 12:48:41;;;;;;;9.65;5.32;;;16.00;99.90;;;;;;5068416;28;20048;-85
2022/10/12 12:51:08;;;;;;;8.55;5.10;;;16.00;99.90;;;;;;5067728;28;20024;-85
2022/10/12 12:53:54;;;;;;;10.05;5.50;;;16.00;99.90;;;;;;5067960;28;20066;-88
2022/10/12 12:56:38;;;;;;;;;;;16.10;99.90;;;;;;5062151;28;20033;-87
2022/10/12 12:59:17;;;;;;;9.60;4.50;;;16.10;99.90;;;;;;5052430;28;19908;-85
2022/10/12 13:02:20;;;;;;;6.63;4.20;;;16.10;99.90;;;;;;5068308;28;20400;-85
2022/10/12 13:05:20;;;;;;;7.00;4.38;;;16.10;99.90;;;;;;5068122;28;20032;-86
2022/10/12 13:08:21;;;;;;;7.93;4.47;;;16.00;99.90;;;;;;5032882;28;20036;-88
2022/10/12 13:11:19;;;;;;;10.10;5.53;;;16.00;99.90;;;;;;5041608;28;20033;-85